sensor_id;sensor_type;location;lat;lon;timestamp;P1;durP1;ratioP1;P2;durP2;ratioP2
69305;SDS011;56427;51.580;4.656;2023-06-14T00:00:10;8.30;;;3.73;;
69305;SDS011;56427;51.580;4.656;2023-06-14T00:02:38;7.18;;;3.30;;
69305;SDS011;56427;51.580;4.656;2023-06-14T00:05:04;6.97;;;3.72;;
69305;SDS011;56427;51.580;4.656;2023-06-14T00:07:34;10.25;;;3.80;;
69305;SDS011;56427;51.580;4.656;2023-06-14T00:10:02;8.15;;;3.80;;
69305;SDS011;56427;51.580;4.656;2023-06-14T00:12:28;6.77;;;3.53;;
69305;SDS011;56427;51.580;4.656;2023-06-14T00:14:53;7.30;;;3.53;;
69305;SDS011;56427;51.580;4.656;2023-06-14T00:17:19;8.77;;;3.53;;
69305;SDS011;56427;51.580;4.656;2023-06-14T00:19:44;7.60;;;3.70;;
69305;SDS011;56427;51.580;4.656;2023-06-14T00:22:10;6.70;;;3.50;;
69305;SDS011;56427;51.580;4.656;2023-06-14T00:24:37;7.82;;;3.22;;
69305;SDS011;56427;51.580;4.656;2023-06-14T00:27:02;11.53;;;3.70;;
69305;SDS011;56427;51.580;4.656;2023-06-14T00:29:28;10.83;;;3.40;;
69305;SDS011;56427;51.580;4.656;2023-06-14T00:31:53;7.65;;;3.45;;
69305;SDS011;56427;51.580;4.656;2023-06-14T00:34:19;8.20;;;3.40;;
69305;SDS011;56427;51.580;4.656;2023-06-14T00:36:44;6.30;;;3.37;;
69305;SDS011;56427;51.580;4.656;2023-06-14T00:39:10;5.73;;;3.10;;
69305;SDS011;56427;51.580;4.656;2023-06-14T00:41:35;6.80;;;3.40;;
69305;SDS011;56427;51.580;4.656;2023-06-14T00:44:05;8.27;;;4.13;;
69305;SDS011;56427;51.580;4.656;2023-06-14T00:46:30;8.60;;;3.50;;
69305;SDS011;56427;51.580;4.656;2023-06-14T00:48:56;6.43;;;3.30;;
69305;SDS011;56427;51.580;4.656;2023-06-14T00:51:23;6.90;;;3.38;;
69305;SDS011;56427;51.580;4.656;2023-06-14T00:53:50;11.63;;;3.60;;
69305;SDS011;56427;51.580;4.656;2023-06-14T00:56:16;9.60;;;3.00;;
69305;SDS011;56427;51.580;4.656;2023-06-14T00:58:45;4.95;;;3.20;;
69305;SDS011;56427;51.580;4.656;2023-06-14T01:01:11;8.50;;;3.30;;
69305;SDS011;56427;51.580;4.656;2023-06-14T01:03:36;8.10;;;3.43;;
69305;SDS011;56427;51.580;4.656;2023-06-14T01:08:52;9.23;;;3.53;;
69305;SDS011;56427;51.580;4.656;2023-06-14T01:11:45;9.57;;;3.33;;
69305;SDS011;56427;51.580;4.656;2023-06-14T01:14:19;12.38;;;3.75;;
69305;SDS011;56427;51.580;4.656;2023-06-14T01:16:46;5.82;;;3.30;;
69305;SDS011;56427;51.580;4.656;2023-06-14T01:19:12;6.40;;;3.15;;
69305;SDS011;56427;51.580;4.656;2023-06-14T01:21:40;6.03;;;3.20;;
69305;SDS011;56427;51.580;4.656;2023-06-14T01:24:06;10.00;;;3.80;;
69305;SDS011;56427;51.580;4.656;2023-06-14T01:26:33;6.75;;;3.40;;
69305;SDS011;56427;51.580;4.656;2023-06-14T01:29:02;9.02;;;3.08;;
69305;SDS011;56427;51.580;4.656;2023-06-14T01:31:28;6.63;;;3.15;;
69305;SDS011;56427;51.580;4.656;2023-06-14T01:34:04;8.65;;;3.35;;
69305;SDS011;56427;51.580;4.656;2023-06-14T01:36:30;7.03;;;3.50;;
69305;SDS011;56427;51.580;4.656;2023-06-14T01:38:56;7.28;;;3.53;;
69305;SDS011;56427;51.580;4.656;2023-06-14T01:41:23;8.82;;;3.40;;
69305;SDS011;56427;51.580;4.656;2023-06-14T01:43:49;8.33;;;3.13;;
69305;SDS011;56427;51.580;4.656;2023-06-14T01:46:16;8.60;;;3.40;;
69305;SDS011;56427;51.580;4.656;2023-06-14T01:48:42;7.50;;;3.60;;
69305;SDS011;56427;51.580;4.656;2023-06-14T01:51:08;5.88;;;3.47;;
69305;SDS011;56427;51.580;4.656;2023-06-14T01:53:33;7.37;;;3.23;;
69305;SDS011;56427;51.580;4.656;2023-06-14T01:55:59;5.87;;;3.00;;
69305;SDS011;56427;51.580;4.656;2023-06-14T01:58:25;6.18;;;3.15;;
69305;SDS011;56427;51.580;4.656;2023-06-14T02:00:51;6.80;;;3.85;;
69305;SDS011;56427;51.580;4.656;2023-06-14T02:03:20;5.73;;;3.57;;
69305;SDS011;56427;51.580;4.656;2023-06-14T02:05:45;6.82;;;3.55;;
69305;SDS011;56427;51.580;4.656;2023-06-14T02:08:11;8.23;;;3.50;;
69305;SDS011;56427;51.580;4.656;2023-06-14T02:10:36;9.57;;;3.67;;
69305;SDS011;56427;51.580;4.656;2023-06-14T02:13:02;10.35;;;3.90;;
69305;SDS011;56427;51.580;4.656;2023-06-14T02:15:27;7.03;;;3.60;;
69305;SDS011;56427;51.580;4.656;2023-06-14T02:17:58;8.88;;;3.33;;
69305;SDS011;56427;51.580;4.656;2023-06-14T02:20:24;8.87;;;4.00;;
69305;SDS011;56427;51.580;4.656;2023-06-14T02:22:49;11.63;;;3.60;;
69305;SDS011;56427;51.580;4.656;2023-06-14T02:25:15;7.40;;;3.57;;
69305;SDS011;56427;51.580;4.656;2023-06-14T02:27:40;10.03;;;3.30;;
69305;SDS011;56427;51.580;4.656;2023-06-14T02:30:06;7.40;;;3.53;;
69305;SDS011;56427;51.580;4.656;2023-06-14T02:32:32;7.32;;;3.50;;
69305;SDS011;56427;51.580;4.656;2023-06-14T02:35:00;6.85;;;3.53;;
69305;SDS011;56427;51.580;4.656;2023-06-14T02:37:26;7.32;;;3.38;;
69305;SDS011;56427;51.580;4.656;2023-06-14T02:39:51;8.37;;;3.87;;
69305;SDS011;56427;51.580;4.656;2023-06-14T02:42:17;7.97;;;3.30;;
69305;SDS011;56427;51.580;4.656;2023-06-14T02:44:42;6.73;;;3.73;;
69305;SDS011;56427;51.580;4.656;2023-06-14T02:47:09;8.70;;;3.35;;
69305;SDS011;56427;51.580;4.656;2023-06-14T02:49:34;7.23;;;3.50;;
69305;SDS011;56427;51.580;4.656;2023-06-14T02:51:59;12.37;;;4.13;;
69305;SDS011;56427;51.580;4.656;2023-06-14T02:54:25;10.88;;;3.95;;
69305;SDS011;56427;51.580;4.656;2023-06-14T02:56:50;9.30;;;3.53;;
69305;SDS011;56427;51.580;4.656;2023-06-14T02:59:15;9.77;;;4.10;;
69305;SDS011;56427;51.580;4.656;2023-06-14T03:01:42;8.02;;;3.60;;
69305;SDS011;56427;51.580;4.656;2023-06-14T03:04:08;9.73;;;3.37;;
69305;SDS011;56427;51.580;4.656;2023-06-14T03:06:33;7.10;;;3.40;;
69305;SDS011;56427;51.580;4.656;2023-06-14T03:08:59;7.87;;;3.30;;
69305;SDS011;56427;51.580;4.656;2023-06-14T03:11:30;6.15;;;3.47;;
69305;SDS011;56427;51.580;4.656;2023-06-14T03:13:56;8.35;;;3.28;;
69305;SDS011;56427;51.580;4.656;2023-06-14T03:16:24;10.00;;;3.25;;
69305;SDS011;56427;51.580;4.656;2023-06-14T03:18:53;7.93;;;3.50;;
69305;SDS011;56427;51.580;4.656;2023-06-14T03:21:19;7.93;;;3.33;;
69305;SDS011;56427;51.580;4.656;2023-06-14T03:23:48;9.90;;;3.33;;
69305;SDS011;56427;51.580;4.656;2023-06-14T03:26:14;7.18;;;3.10;;
69305;SDS011;56427;51.580;4.656;2023-06-14T03:28:42;6.45;;;3.30;;
69305;SDS011;56427;51.580;4.656;2023-06-14T03:31:11;5.97;;;3.70;;
69305;SDS011;56427;51.580;4.656;2023-06-14T03:33:38;9.73;;;3.65;;
69305;SDS011;56427;51.580;4.656;2023-06-14T03:36:04;8.67;;;3.47;;
69305;SDS011;56427;51.580;4.656;2023-06-14T03:38:30;7.55;;;3.60;;
69305;SDS011;56427;51.580;4.656;2023-06-14T03:40:56;8.13;;;3.58;;
69305;SDS011;56427;51.580;4.656;2023-06-14T03:43:22;8.30;;;3.35;;
69305;SDS011;56427;51.580;4.656;2023-06-14T03:45:48;8.47;;;3.47;;
69305;SDS011;56427;51.580;4.656;2023-06-14T03:48:13;8.50;;;3.57;;
69305;SDS011;56427;51.580;4.656;2023-06-14T03:50:39;6.87;;;4.50;;
69305;SDS011;56427;51.580;4.656;2023-06-14T03:53:04;8.60;;;4.20;;
69305;SDS011;56427;51.580;4.656;2023-06-14T03:55:30;7.13;;;3.60;;
69305;SDS011;56427;51.580;4.656;2023-06-14T03:57:56;7.60;;;3.85;;
69305;SDS011;56427;51.580;4.656;2023-06-14T04:00:22;12.35;;;3.83;;
69305;SDS011;56427;51.580;4.656;2023-06-14T04:02:48;8.57;;;3.37;;
69305;SDS011;56427;51.580;4.656;2023-06-14T04:05:14;10.05;;;3.53;;
69305;SDS011;56427;51.580;4.656;2023-06-14T04:07:41;7.80;;;3.30;;
69305;SDS011;56427;51.580;4.656;2023-06-14T04:10:10;8.70;;;3.60;;
69305;SDS011;56427;51.580;4.656;2023-06-14T04:12:37;7.38;;;3.55;;
69305;SDS011;56427;51.580;4.656;2023-06-14T04:15:03;10.00;;;3.60;;
69305;SDS011;56427;51.580;4.656;2023-06-14T04:17:31;9.13;;;3.25;;
69305;SDS011;56427;51.580;4.656;2023-06-14T04:20:00;9.52;;;3.78;;
69305;SDS011;56427;51.580;4.656;2023-06-14T04:22:28;8.20;;;3.45;;
69305;SDS011;56427;51.580;4.656;2023-06-14T04:24:54;8.83;;;3.50;;
69305;SDS011;56427;51.580;4.656;2023-06-14T04:27:21;10.07;;;4.05;;
69305;SDS011;56427;51.580;4.656;2023-06-14T04:29:55;8.55;;;3.97;;
69305;SDS011;56427;51.580;4.656;2023-06-14T04:32:25;5.40;;;2.93;;
69305;SDS011;56427;51.580;4.656;2023-06-14T04:34:52;8.73;;;3.50;;
69305;SDS011;56427;51.580;4.656;2023-06-14T04:37:19;8.18;;;3.38;;
69305;SDS011;56427;51.580;4.656;2023-06-14T04:39:48;9.23;;;3.60;;
69305;SDS011;56427;51.580;4.656;2023-06-14T04:42:15;6.50;;;3.63;;
69305;SDS011;56427;51.580;4.656;2023-06-14T04:44:41;5.77;;;3.50;;
69305;SDS011;56427;51.580;4.656;2023-06-14T04:47:11;8.77;;;3.50;;
69305;SDS011;56427;51.580;4.656;2023-06-14T04:49:38;8.60;;;3.50;;
69305;SDS011;56427;51.580;4.656;2023-06-14T04:52:05;8.27;;;3.50;;
69305;SDS011;56427;51.580;4.656;2023-06-14T04:54:33;8.47;;;3.33;;
69305;SDS011;56427;51.580;4.656;2023-06-14T04:57:03;6.45;;;3.45;;
69305;SDS011;56427;51.580;4.656;2023-06-14T04:59:31;7.32;;;3.65;;
69305;SDS011;56427;51.580;4.656;2023-06-14T05:01:58;10.35;;;3.38;;
69305;SDS011;56427;51.580;4.656;2023-06-14T05:04:25;7.28;;;3.38;;
69305;SDS011;56427;51.580;4.656;2023-06-14T05:06:51;15.03;;;3.93;;
69305;SDS011;56427;51.580;4.656;2023-06-14T05:09:19;9.13;;;3.92;;
69305;SDS011;56427;51.580;4.656;2023-06-14T05:11:45;16.02;;;4.43;;
69305;SDS011;56427;51.580;4.656;2023-06-14T05:14:12;6.82;;;3.42;;
69305;SDS011;56427;51.580;4.656;2023-06-14T05:16:38;7.93;;;3.43;;
69305;SDS011;56427;51.580;4.656;2023-06-14T05:19:05;12.43;;;3.65;;
69305;SDS011;56427;51.580;4.656;2023-06-14T05:21:31;11.18;;;3.58;;
69305;SDS011;56427;51.580;4.656;2023-06-14T05:24:00;8.65;;;3.75;;
69305;SDS011;56427;51.580;4.656;2023-06-14T05:26:26;9.55;;;3.70;;
69305;SDS011;56427;51.580;4.656;2023-06-14T05:28:55;8.20;;;3.53;;
69305;SDS011;56427;51.580;4.656;2023-06-14T05:31:25;5.93;;;3.45;;
69305;SDS011;56427;51.580;4.656;2023-06-14T05:33:51;9.60;;;4.10;;
69305;SDS011;56427;51.580;4.656;2023-06-14T05:36:17;6.03;;;3.83;;
69305;SDS011;56427;51.580;4.656;2023-06-14T05:38:43;10.35;;;3.90;;
69305;SDS011;56427;51.580;4.656;2023-06-14T05:41:10;11.30;;;3.40;;
69305;SDS011;56427;51.580;4.656;2023-06-14T05:43:35;6.20;;;3.60;;
69305;SDS011;56427;51.580;4.656;2023-06-14T05:46:01;13.27;;;3.33;;
69305;SDS011;56427;51.580;4.656;2023-06-14T05:48:26;8.47;;;3.40;;
69305;SDS011;56427;51.580;4.656;2023-06-14T05:50:51;8.75;;;3.88;;
69305;SDS011;56427;51.580;4.656;2023-06-14T05:53:17;7.83;;;3.63;;
69305;SDS011;56427;51.580;4.656;2023-06-14T05:55:42;12.23;;;3.43;;
69305;SDS011;56427;51.580;4.656;2023-06-14T05:58:08;7.30;;;4.10;;
69305;SDS011;56427;51.580;4.656;2023-06-14T06:00:34;8.90;;;3.53;;
69305;SDS011;56427;51.580;4.656;2023-06-14T06:02:59;8.30;;;3.37;;
69305;SDS011;56427;51.580;4.656;2023-06-14T06:05:25;6.28;;;3.10;;
69305;SDS011;56427;51.580;4.656;2023-06-14T06:07:51;9.10;;;3.57;;
69305;SDS011;56427;51.580;4.656;2023-06-14T06:10:18;8.48;;;3.65;;
69305;SDS011;56427;51.580;4.656;2023-06-14T06:12:43;10.00;;;3.60;;
69305;SDS011;56427;51.580;4.656;2023-06-14T06:15:09;10.15;;;3.33;;
69305;SDS011;56427;51.580;4.656;2023-06-14T06:17:38;7.85;;;3.80;;
69305;SDS011;56427;51.580;4.656;2023-06-14T06:20:04;10.95;;;3.80;;
69305;SDS011;56427;51.580;4.656;2023-06-14T06:22:33;7.30;;;3.57;;
69305;SDS011;56427;51.580;4.656;2023-06-14T06:24:58;6.03;;;3.80;;
69305;SDS011;56427;51.580;4.656;2023-06-14T06:27:24;7.83;;;3.73;;
69305;SDS011;56427;51.580;4.656;2023-06-14T06:29:49;8.53;;;3.90;;
69305;SDS011;56427;51.580;4.656;2023-06-14T06:32:16;9.63;;;3.70;;
69305;SDS011;56427;51.580;4.656;2023-06-14T06:34:42;8.60;;;3.47;;
69305;SDS011;56427;51.580;4.656;2023-06-14T06:37:07;7.20;;;3.53;;
69305;SDS011;56427;51.580;4.656;2023-06-14T06:39:33;8.80;;;4.20;;
69305;SDS011;56427;51.580;4.656;2023-06-14T06:41:58;14.80;;;3.90;;
69305;SDS011;56427;51.580;4.656;2023-06-14T06:44:24;15.05;;;3.90;;
69305;SDS011;56427;51.580;4.656;2023-06-14T06:46:50;7.70;;;3.60;;
69305;SDS011;56427;51.580;4.656;2023-06-14T06:49:15;9.88;;;3.78;;
69305;SDS011;56427;51.580;4.656;2023-06-14T06:51:41;8.83;;;3.80;;
69305;SDS011;56427;51.580;4.656;2023-06-14T06:54:10;7.60;;;3.85;;
69305;SDS011;56427;51.580;4.656;2023-06-14T06:56:36;6.27;;;3.60;;
69305;SDS011;56427;51.580;4.656;2023-06-14T06:59:01;7.80;;;3.95;;
69305;SDS011;56427;51.580;4.656;2023-06-14T07:01:27;5.90;;;4.00;;
69305;SDS011;56427;51.580;4.656;2023-06-14T07:03:54;9.35;;;4.18;;
69305;SDS011;56427;51.580;4.656;2023-06-14T07:06:20;8.85;;;3.88;;
69305;SDS011;56427;51.580;4.656;2023-06-14T07:08:46;8.15;;;3.75;;
69305;SDS011;56427;51.580;4.656;2023-06-14T07:11:13;11.85;;;3.70;;
69305;SDS011;56427;51.580;4.656;2023-06-14T07:13:39;8.20;;;4.00;;
69305;SDS011;56427;51.580;4.656;2023-06-14T07:16:05;10.00;;;4.10;;
69305;SDS011;56427;51.580;4.656;2023-06-14T07:18:31;5.87;;;4.13;;
69305;SDS011;56427;51.580;4.656;2023-06-14T07:20:56;9.47;;;4.00;;
69305;SDS011;56427;51.580;4.656;2023-06-14T07:23:22;9.30;;;4.03;;
69305;SDS011;56427;51.580;4.656;2023-06-14T07:25:48;10.23;;;5.30;;
69305;SDS011;56427;51.580;4.656;2023-06-14T07:28:13;8.13;;;3.77;;
69305;SDS011;56427;51.580;4.656;2023-06-14T07:30:39;7.40;;;3.67;;
69305;SDS011;56427;51.580;4.656;2023-06-14T07:33:04;6.47;;;3.83;;
69305;SDS011;56427;51.580;4.656;2023-06-14T07:35:30;7.35;;;4.15;;
69305;SDS011;56427;51.580;4.656;2023-06-14T07:37:56;12.13;;;3.90;;
69305;SDS011;56427;51.580;4.656;2023-06-14T07:40:21;6.63;;;3.60;;
69305;SDS011;56427;51.580;4.656;2023-06-14T07:42:47;12.38;;;4.05;;
69305;SDS011;56427;51.580;4.656;2023-06-14T07:45:13;8.50;;;4.03;;
69305;SDS011;56427;51.580;4.656;2023-06-14T07:47:39;10.07;;;4.32;;
69305;SDS011;56427;51.580;4.656;2023-06-14T07:50:05;12.73;;;3.90;;
69305;SDS011;56427;51.580;4.656;2023-06-14T07:52:30;7.50;;;4.28;;
69305;SDS011;56427;51.580;4.656;2023-06-14T07:54:56;11.03;;;4.37;;
69305;SDS011;56427;51.580;4.656;2023-06-14T07:57:22;5.93;;;4.15;;
69305;SDS011;56427;51.580;4.656;2023-06-14T07:59:47;7.03;;;3.80;;
69305;SDS011;56427;51.580;4.656;2023-06-14T08:02:14;6.30;;;4.07;;
69305;SDS011;56427;51.580;4.656;2023-06-14T08:04:39;8.67;;;4.20;;
69305;SDS011;56427;51.580;4.656;2023-06-14T08:07:05;9.57;;;4.20;;
69305;SDS011;56427;51.580;4.656;2023-06-14T08:09:30;7.97;;;4.00;;
69305;SDS011;56427;51.580;4.656;2023-06-14T08:11:56;7.75;;;4.35;;
69305;SDS011;56427;51.580;4.656;2023-06-14T08:14:22;8.33;;;4.23;;
69305;SDS011;56427;51.580;4.656;2023-06-14T08:16:48;10.68;;;4.45;;
69305;SDS011;56427;51.580;4.656;2023-06-14T08:19:13;11.47;;;4.57;;
69305;SDS011;56427;51.580;4.656;2023-06-14T08:21:39;13.17;;;4.20;;
69305;SDS011;56427;51.580;4.656;2023-06-14T08:24:05;7.72;;;3.95;;
69305;SDS011;56427;51.580;4.656;2023-06-14T08:26:31;9.63;;;3.78;;
69305;SDS011;56427;51.580;4.656;2023-06-14T08:28:57;5.70;;;3.90;;
69305;SDS011;56427;51.580;4.656;2023-06-14T08:31:23;12.37;;;4.03;;
69305;SDS011;56427;51.580;4.656;2023-06-14T08:33:49;9.65;;;3.80;;
69305;SDS011;56427;51.580;4.656;2023-06-14T08:36:15;8.27;;;4.20;;
69305;SDS011;56427;51.580;4.656;2023-06-14T08:38:40;6.68;;;4.32;;
69305;SDS011;56427;51.580;4.656;2023-06-14T08:41:06;7.80;;;4.27;;
69305;SDS011;56427;51.580;4.656;2023-06-14T08:43:33;7.88;;;3.85;;
69305;SDS011;56427;51.580;4.656;2023-06-14T08:46:00;9.27;;;3.85;;
69305;SDS011;56427;51.580;4.656;2023-06-14T08:48:28;11.23;;;3.80;;
69305;SDS011;56427;51.580;4.656;2023-06-14T08:50:57;13.47;;;3.90;;
69305;SDS011;56427;51.580;4.656;2023-06-14T08:53:32;9.23;;;3.75;;
69305;SDS011;56427;51.580;4.656;2023-06-14T08:56:01;4.93;;;3.20;;
69305;SDS011;56427;51.580;4.656;2023-06-14T08:58:33;9.20;;;3.90;;
69305;SDS011;56427;51.580;4.656;2023-06-14T09:00:59;9.05;;;3.83;;
69305;SDS011;56427;51.580;4.656;2023-06-14T09:03:26;10.57;;;3.97;;
69305;SDS011;56427;51.580;4.656;2023-06-14T09:05:55;8.27;;;3.60;;
69305;SDS011;56427;51.580;4.656;2023-06-14T09:08:24;13.90;;;3.83;;
69305;SDS011;56427;51.580;4.656;2023-06-14T09:10:56;9.82;;;4.13;;
69305;SDS011;56427;51.580;4.656;2023-06-14T09:13:22;7.93;;;3.78;;
69305;SDS011;56427;51.580;4.656;2023-06-14T09:15:47;12.20;;;3.77;;
69305;SDS011;56427;51.580;4.656;2023-06-14T09:18:13;10.67;;;3.60;;
69305;SDS011;56427;51.580;4.656;2023-06-14T09:20:38;9.80;;;3.93;;
69305;SDS011;56427;51.580;4.656;2023-06-14T09:23:06;8.30;;;3.55;;
69305;SDS011;56427;51.580;4.656;2023-06-14T09:25:32;8.82;;;3.70;;
69305;SDS011;56427;51.580;4.656;2023-06-14T09:27:58;6.50;;;3.75;;
69305;SDS011;56427;51.580;4.656;2023-06-14T09:30:23;10.40;;;3.70;;
69305;SDS011;56427;51.580;4.656;2023-06-14T09:32:48;7.90;;;3.90;;
69305;SDS011;56427;51.580;4.656;2023-06-14T09:35:16;7.80;;;3.60;;
69305;SDS011;56427;51.580;4.656;2023-06-14T09:37:42;7.35;;;3.88;;
69305;SDS011;56427;51.580;4.656;2023-06-14T09:40:08;7.67;;;3.47;;
69305;SDS011;56427;51.580;4.656;2023-06-14T09:42:34;5.68;;;3.10;;
69305;SDS011;56427;51.580;4.656;2023-06-14T09:45:02;8.75;;;3.20;;
69305;SDS011;56427;51.580;4.656;2023-06-14T09:47:28;8.32;;;3.00;;
69305;SDS011;56427;51.580;4.656;2023-06-14T09:49:54;5.93;;;3.43;;
69305;SDS011;56427;51.580;4.656;2023-06-14T09:52:21;7.85;;;3.10;;
69305;SDS011;56427;51.580;4.656;2023-06-14T09:54:47;6.57;;;3.00;;
69305;SDS011;56427;51.580;4.656;2023-06-14T09:57:21;6.23;;;2.80;;
69305;SDS011;56427;51.580;4.656;2023-06-14T09:59:48;6.22;;;3.10;;
69305;SDS011;56427;51.580;4.656;2023-06-14T10:02:28;8.75;;;3.03;;
69305;SDS011;56427;51.580;4.656;2023-06-14T10:10:30;15.57;;;3.87;;
69305;SDS011;56427;51.580;4.656;2023-06-14T10:12:56;6.45;;;3.05;;
69305;SDS011;56427;51.580;4.656;2023-06-14T10:15:37;6.40;;;2.92;;
69305;SDS011;56427;51.580;4.656;2023-06-14T10:20:51;6.15;;;3.17;;
69305;SDS011;56427;51.580;4.656;2023-06-14T10:23:25;7.87;;;2.90;;
69305;SDS011;56427;51.580;4.656;2023-06-14T10:25:58;5.97;;;2.70;;
69305;SDS011;56427;51.580;4.656;2023-06-14T10:28:25;6.88;;;3.05;;
69305;SDS011;56427;51.580;4.656;2023-06-14T10:31:12;8.10;;;3.03;;
69305;SDS011;56427;51.580;4.656;2023-06-14T10:33:48;12.05;;;3.13;;
69305;SDS011;56427;51.580;4.656;2023-06-14T10:38:59;7.57;;;3.95;;
69305;SDS011;56427;51.580;4.656;2023-06-14T10:41:39;6.90;;;2.70;;
69305;SDS011;56427;51.580;4.656;2023-06-14T10:46:37;5.22;;;2.55;;
69305;SDS011;56427;51.580;4.656;2023-06-14T10:49:03;5.47;;;2.60;;
69305;SDS011;56427;51.580;4.656;2023-06-14T10:51:30;8.40;;;2.78;;
69305;SDS011;56427;51.580;4.656;2023-06-14T10:54:11;5.38;;;2.45;;
69305;SDS011;56427;51.580;4.656;2023-06-14T10:56:46;4.15;;;2.58;;
69305;SDS011;56427;51.580;4.656;2023-06-14T10:59:16;7.07;;;2.45;;
69305;SDS011;56427;51.580;4.656;2023-06-14T11:12:55;3.80;;;2.30;;
69305;SDS011;56427;51.580;4.656;2023-06-14T11:15:27;3.97;;;1.90;;
69305;SDS011;56427;51.580;4.656;2023-06-14T11:17:57;5.35;;;2.40;;
69305;SDS011;56427;51.580;4.656;2023-06-14T11:20:26;6.18;;;2.20;;
69305;SDS011;56427;51.580;4.656;2023-06-14T11:22:56;5.78;;;2.10;;
69305;SDS011;56427;51.580;4.656;2023-06-14T11:25:22;4.70;;;1.87;;
69305;SDS011;56427;51.580;4.656;2023-06-14T11:27:49;6.88;;;1.83;;
69305;SDS011;56427;51.580;4.656;2023-06-14T11:30:15;5.82;;;1.90;;
69305;SDS011;56427;51.580;4.656;2023-06-14T11:32:41;6.13;;;2.00;;
69305;SDS011;56427;51.580;4.656;2023-06-14T11:35:07;3.03;;;1.37;;
69305;SDS011;56427;51.580;4.656;2023-06-14T11:37:35;24.95;;;2.20;;
69305;SDS011;56427;51.580;4.656;2023-06-14T11:40:02;5.90;;;1.60;;
69305;SDS011;56427;51.580;4.656;2023-06-14T11:42:33;4.72;;;1.80;;
69305;SDS011;56427;51.580;4.656;2023-06-14T11:44:58;5.47;;;1.80;;
69305;SDS011;56427;51.580;4.656;2023-06-14T11:47:24;4.37;;;1.50;;
69305;SDS011;56427;51.580;4.656;2023-06-14T11:49:49;4.72;;;1.50;;
69305;SDS011;56427;51.580;4.656;2023-06-14T11:52:16;3.10;;;1.73;;
69305;SDS011;56427;51.580;4.656;2023-06-14T11:54:43;3.03;;;1.63;;
69305;SDS011;56427;51.580;4.656;2023-06-14T11:57:09;6.23;;;1.80;;
69305;SDS011;56427;51.580;4.656;2023-06-14T11:59:38;4.53;;;2.10;;
69305;SDS011;56427;51.580;4.656;2023-06-14T12:02:05;6.53;;;1.70;;
69305;SDS011;56427;51.580;4.656;2023-06-14T12:04:31;6.55;;;1.73;;
69305;SDS011;56427;51.580;4.656;2023-06-14T12:06:57;3.73;;;1.70;;
69305;SDS011;56427;51.580;4.656;2023-06-14T12:10:03;4.43;;;1.75;;
69305;SDS011;56427;51.580;4.656;2023-06-14T12:12:26;3.55;;;1.70;;
69305;SDS011;56427;51.580;4.656;2023-06-14T12:14:52;6.00;;;1.70;;
69305;SDS011;56427;51.580;4.656;2023-06-14T12:17:18;4.18;;;1.65;;
69305;SDS011;56427;51.580;4.656;2023-06-14T12:19:44;4.93;;;1.60;;
69305;SDS011;56427;51.580;4.656;2023-06-14T12:22:11;2.72;;;1.50;;
69305;SDS011;56427;51.580;4.656;2023-06-14T12:24:38;4.47;;;1.58;;
69305;SDS011;56427;51.580;4.656;2023-06-14T12:27:04;6.18;;;1.63;;
69305;SDS011;56427;51.580;4.656;2023-06-14T12:29:31;7.40;;;2.42;;
69305;SDS011;56427;51.580;4.656;2023-06-14T12:31:57;4.03;;;1.50;;
69305;SDS011;56427;51.580;4.656;2023-06-14T12:34:23;3.58;;;1.60;;
69305;SDS011;56427;51.580;4.656;2023-06-14T12:36:52;5.53;;;1.55;;
69305;SDS011;56427;51.580;4.656;2023-06-14T12:39:18;5.90;;;1.80;;
69305;SDS011;56427;51.580;4.656;2023-06-14T12:41:44;4.82;;;1.60;;
69305;SDS011;56427;51.580;4.656;2023-06-14T12:44:10;12.67;;;1.90;;
69305;SDS011;56427;51.580;4.656;2023-06-14T12:46:39;5.60;;;1.70;;
69305;SDS011;56427;51.580;4.656;2023-06-14T12:49:07;5.03;;;1.50;;
69305;SDS011;56427;51.580;4.656;2023-06-14T12:51:34;4.57;;;1.38;;
69305;SDS011;56427;51.580;4.656;2023-06-14T12:54:03;3.80;;;1.60;;
69305;SDS011;56427;51.580;4.656;2023-06-14T12:56:28;7.20;;;1.70;;
69305;SDS011;56427;51.580;4.656;2023-06-14T12:58:54;5.15;;;1.50;;
69305;SDS011;56427;51.580;4.656;2023-06-14T13:01:20;5.93;;;1.60;;
69305;SDS011;56427;51.580;4.656;2023-06-14T13:03:46;4.07;;;1.60;;
69305;SDS011;56427;51.580;4.656;2023-06-14T13:06:12;4.22;;;1.50;;
69305;SDS011;56427;51.580;4.656;2023-06-14T13:08:39;4.50;;;1.70;;
69305;SDS011;56427;51.580;4.656;2023-06-14T13:11:04;5.77;;;3.10;;
69305;SDS011;56427;51.580;4.656;2023-06-14T13:13:29;4.30;;;1.70;;
69305;SDS011;56427;51.580;4.656;2023-06-14T13:15:55;3.20;;;1.77;;
69305;SDS011;56427;51.580;4.656;2023-06-14T13:18:21;5.93;;;1.73;;
69305;SDS011;56427;51.580;4.656;2023-06-14T13:20:46;4.50;;;1.80;;
69305;SDS011;56427;51.580;4.656;2023-06-14T13:23:12;4.70;;;1.80;;
69305;SDS011;56427;51.580;4.656;2023-06-14T13:25:37;4.50;;;1.83;;
69305;SDS011;56427;51.580;4.656;2023-06-14T13:28:03;3.17;;;1.50;;
69305;SDS011;56427;51.580;4.656;2023-06-14T13:30:30;5.40;;;1.50;;
69305;SDS011;56427;51.580;4.656;2023-06-14T13:32:56;4.13;;;1.77;;
69305;SDS011;56427;51.580;4.656;2023-06-14T13:35:22;3.00;;;1.33;;
69305;SDS011;56427;51.580;4.656;2023-06-14T13:37:48;3.70;;;1.50;;
69305;SDS011;56427;51.580;4.656;2023-06-14T13:40:13;4.63;;;1.80;;
69305;SDS011;56427;51.580;4.656;2023-06-14T13:42:39;6.07;;;1.95;;
69305;SDS011;56427;51.580;4.656;2023-06-14T13:45:05;3.33;;;1.60;;
69305;SDS011;56427;51.580;4.656;2023-06-14T13:47:31;4.43;;;1.63;;
69305;SDS011;56427;51.580;4.656;2023-06-14T13:49:57;4.40;;;1.83;;
69305;SDS011;56427;51.580;4.656;2023-06-14T13:52:23;3.53;;;1.80;;
69305;SDS011;56427;51.580;4.656;2023-06-14T13:54:49;4.15;;;1.58;;
69305;SDS011;56427;51.580;4.656;2023-06-14T13:57:14;3.50;;;2.10;;
69305;SDS011;56427;51.580;4.656;2023-06-14T13:59:40;4.63;;;1.70;;
69305;SDS011;56427;51.580;4.656;2023-06-14T14:02:06;3.13;;;1.77;;
69305;SDS011;56427;51.580;4.656;2023-06-14T14:04:33;4.75;;;1.63;;
69305;SDS011;56427;51.580;4.656;2023-06-14T14:07:00;4.87;;;1.90;;
69305;SDS011;56427;51.580;4.656;2023-06-14T14:09:26;3.70;;;1.80;;
69305;SDS011;56427;51.580;4.656;2023-06-14T14:11:52;5.37;;;1.90;;
69305;SDS011;56427;51.580;4.656;2023-06-14T14:14:17;5.47;;;1.90;;
69305;SDS011;56427;51.580;4.656;2023-06-14T14:16:43;3.73;;;2.00;;
69305;SDS011;56427;51.580;4.656;2023-06-14T14:19:08;3.72;;;2.20;;
69305;SDS011;56427;51.580;4.656;2023-06-14T14:21:34;7.47;;;1.73;;
69305;SDS011;56427;51.580;4.656;2023-06-14T14:24:00;5.22;;;2.13;;
69305;SDS011;56427;51.580;4.656;2023-06-14T14:26:25;4.63;;;1.97;;
69305;SDS011;56427;51.580;4.656;2023-06-14T14:28:51;3.20;;;2.00;;
69305;SDS011;56427;51.580;4.656;2023-06-14T14:31:17;5.00;;;1.90;;
69305;SDS011;56427;51.580;4.656;2023-06-14T14:33:42;8.93;;;1.90;;
69305;SDS011;56427;51.580;4.656;2023-06-14T14:36:08;5.57;;;1.83;;
69305;SDS011;56427;51.580;4.656;2023-06-14T14:38:34;4.83;;;1.77;;
69305;SDS011;56427;51.580;4.656;2023-06-14T14:40:59;4.25;;;2.42;;
69305;SDS011;56427;51.580;4.656;2023-06-14T14:43:25;5.43;;;2.10;;
69305;SDS011;56427;51.580;4.656;2023-06-14T14:45:52;6.72;;;1.80;;
69305;SDS011;56427;51.580;4.656;2023-06-14T14:48:17;8.32;;;1.80;;
69305;SDS011;56427;51.580;4.656;2023-06-14T14:50:43;6.30;;;1.90;;
69305;SDS011;56427;51.580;4.656;2023-06-14T14:53:08;6.27;;;2.40;;
69305;SDS011;56427;51.580;4.656;2023-06-14T14:55:34;5.68;;;2.00;;
69305;SDS011;56427;51.580;4.656;2023-06-14T14:58:01;6.10;;;1.77;;
69305;SDS011;56427;51.580;4.656;2023-06-14T15:00:28;4.60;;;1.73;;
69305;SDS011;56427;51.580;4.656;2023-06-14T15:02:53;5.20;;;1.85;;
69305;SDS011;56427;51.580;4.656;2023-06-14T15:05:18;5.03;;;2.03;;
69305;SDS011;56427;51.580;4.656;2023-06-14T15:07:44;4.32;;;1.55;;
69305;SDS011;56427;51.580;4.656;2023-06-14T15:10:11;3.77;;;1.90;;